sensor_id;sensor_type;location;lat;lon;timestamp;P1;durP1;ratioP1;P2;durP2;ratioP2
45944;SDS011;31655;48.972;10.686;2022-12-07T00:25:27;37.03;;;15.00;;
45944;SDS011;31655;48.972;10.686;2022-12-07T00:27:54;20.10;;;11.77;;
45944;SDS011;31655;48.972;10.686;2022-12-07T00:30:21;18.67;;;11.60;;
45944;SDS011;31655;48.972;10.686;2022-12-07T00:32:48;20.17;;;11.15;;
45944;SDS011;31655;48.972;10.686;2022-12-07T00:35:14;19.65;;;11.43;;
45944;SDS011;31655;48.972;10.686;2022-12-07T00:37:40;21.95;;;13.52;;
45944;SDS011;31655;48.972;10.686;2022-12-07T00:40:06;21.05;;;12.18;;
45944;SDS011;31655;48.972;10.686;2022-12-07T00:42:32;20.20;;;12.40;;
45944;SDS011;31655;48.972;10.686;2022-12-07T00:44:58;18.85;;;12.20;;
45944;SDS011;31655;48.972;10.686;2022-12-07T00:47:24;22.33;;;12.18;;
45944;SDS011;31655;48.972;10.686;2022-12-07T00:49:49;18.95;;;11.57;;
45944;SDS011;31655;48.972;10.686;2022-12-07T00:52:15;18.50;;;11.20;;
45944;SDS011;31655;48.972;10.686;2022-12-07T00:54:41;18.25;;;12.13;;
45944;SDS011;31655;48.972;10.686;2022-12-07T00:57:06;20.73;;;11.48;;
45944;SDS011;31655;48.972;10.686;2022-12-07T00:59:32;18.98;;;11.88;;
45944;SDS011;31655;48.972;10.686;2022-12-07T01:01:58;19.60;;;12.32;;
45944;SDS011;31655;48.972;10.686;2022-12-07T01:04:24;24.55;;;13.32;;
45944;SDS011;31655;48.972;10.686;2022-12-07T01:06:50;22.75;;;13.02;;
45944;SDS011;31655;48.972;10.686;2022-12-07T01:09:16;23.83;;;13.05;;
45944;SDS011;31655;48.972;10.686;2022-12-07T01:11:42;21.30;;;13.48;;
45944;SDS011;31655;48.972;10.686;2022-12-07T01:14:08;20.77;;;12.23;;
45944;SDS011;31655;48.972;10.686;2022-12-07T01:16:34;22.67;;;12.00;;
45944;SDS011;31655;48.972;10.686;2022-12-07T01:19:01;21.52;;;13.20;;
45944;SDS011;31655;48.972;10.686;2022-12-07T01:21:30;21.48;;;12.15;;
45944;SDS011;31655;48.972;10.686;2022-12-07T01:24:03;22.35;;;13.65;;
45944;SDS011;31655;48.972;10.686;2022-12-07T01:26:29;21.15;;;13.02;;
45944;SDS011;31655;48.972;10.686;2022-12-07T01:28:55;22.83;;;12.63;;
45944;SDS011;31655;48.972;10.686;2022-12-07T01:31:24;21.17;;;12.63;;
45944;SDS011;31655;48.972;10.686;2022-12-07T01:33:51;18.85;;;11.77;;
45944;SDS011;31655;48.972;10.686;2022-12-07T01:36:20;21.95;;;12.65;;
45944;SDS011;31655;48.972;10.686;2022-12-07T01:38:47;29.17;;;13.93;;
45944;SDS011;31655;48.972;10.686;2022-12-07T01:41:16;25.63;;;13.27;;
45944;SDS011;31655;48.972;10.686;2022-12-07T01:47:03;24.20;;;13.75;;
45944;SDS011;31655;48.972;10.686;2022-12-07T01:54:57;25.48;;;14.25;;
45944;SDS011;31655;48.972;10.686;2022-12-07T01:57:30;22.17;;;13.73;;
45944;SDS011;31655;48.972;10.686;2022-12-07T01:59:58;24.45;;;15.05;;
45944;SDS011;31655;48.972;10.686;2022-12-07T02:02:29;26.20;;;14.23;;
45944;SDS011;31655;48.972;10.686;2022-12-07T02:05:02;23.95;;;13.65;;
45944;SDS011;31655;48.972;10.686;2022-12-07T02:07:30;25.77;;;15.68;;
45944;SDS011;31655;48.972;10.686;2022-12-07T02:10:20;22.13;;;13.32;;
45944;SDS011;31655;48.972;10.686;2022-12-07T02:12:47;27.55;;;14.85;;
45944;SDS011;31655;48.972;10.686;2022-12-07T02:15:16;25.33;;;13.48;;
45944;SDS011;31655;48.972;10.686;2022-12-07T09:22:12;32.97;;;15.90;;
45944;SDS011;31655;48.972;10.686;2022-12-07T09:24:38;31.33;;;15.15;;
45944;SDS011;31655;48.972;10.686;2022-12-07T09:27:04;32.30;;;15.43;;
45944;SDS011;31655;48.972;10.686;2022-12-07T09:29:29;31.08;;;15.75;;
45944;SDS011;31655;48.972;10.686;2022-12-07T09:31:55;29.30;;;14.07;;
45944;SDS011;31655;48.972;10.686;2022-12-07T09:34:21;29.90;;;14.55;;
45944;SDS011;31655;48.972;10.686;2022-12-07T09:36:47;29.50;;;14.98;;
45944;SDS011;31655;48.972;10.686;2022-12-07T09:39:13;25.48;;;13.57;;
45944;SDS011;31655;48.972;10.686;2022-12-07T09:41:42;27.17;;;14.05;;
45944;SDS011;31655;48.972;10.686;2022-12-07T09:44:13;25.77;;;13.27;;
45944;SDS011;31655;48.972;10.686;2022-12-07T09:46:42;25.10;;;12.82;;
45944;SDS011;31655;48.972;10.686;2022-12-07T09:49:20;23.17;;;12.73;;
45944;SDS011;31655;48.972;10.686;2022-12-07T09:51:47;26.02;;;13.23;;
45944;SDS011;31655;48.972;10.686;2022-12-07T09:54:24;25.67;;;13.52;;
45944;SDS011;31655;48.972;10.686;2022-12-07T09:56:50;23.40;;;11.75;;
45944;SDS011;31655;48.972;10.686;2022-12-07T09:59:16;22.02;;;12.23;;
45944;SDS011;31655;48.972;10.686;2022-12-07T10:01:43;21.50;;;11.90;;
45944;SDS011;31655;48.972;10.686;2022-12-07T10:06:38;23.80;;;12.65;;
45944;SDS011;31655;48.972;10.686;2022-12-07T10:09:22;25.15;;;13.00;;
45944;SDS011;31655;48.972;10.686;2022-12-07T10:11:57;21.67;;;11.35;;
45944;SDS011;31655;48.972;10.686;2022-12-07T10:14:30;20.98;;;10.85;;
45944;SDS011;31655;48.972;10.686;2022-12-07T10:19:32;26.23;;;11.45;;
45944;SDS011;31655;48.972;10.686;2022-12-07T10:22:14;20.60;;;10.98;;
45944;SDS011;31655;48.972;10.686;2022-12-07T10:24:47;20.70;;;12.10;;
45944;SDS011;31655;48.972;10.686;2022-12-07T10:32:43;20.10;;;9.73;;
45944;SDS011;31655;48.972;10.686;2022-12-07T10:35:19;17.73;;;9.38;;
45944;SDS011;31655;48.972;10.686;2022-12-07T10:37:50;18.58;;;9.55;;
45944;SDS011;31655;48.972;10.686;2022-12-07T10:40:33;17.90;;;9.70;;
45944;SDS011;31655;48.972;10.686;2022-12-07T10:43:04;19.92;;;10.70;;
45944;SDS011;31655;48.972;10.686;2022-12-07T10:45:41;15.98;;;8.30;;
45944;SDS011;31655;48.972;10.686;2022-12-07T10:57:42;18.77;;;9.95;;
45944;SDS011;31655;48.972;10.686;2022-12-07T11:00:28;17.08;;;9.80;;
45944;SDS011;31655;48.972;10.686;2022-12-07T11:06:45;15.57;;;8.65;;
45944;SDS011;31655;48.972;10.686;2022-12-07T11:11:59;15.52;;;8.52;;
45944;SDS011;31655;48.972;10.686;2022-12-07T11:29:53;14.27;;;7.60;;
45944;SDS011;31655;48.972;10.686;2022-12-07T11:49:03;14.25;;;6.97;;
45944;SDS011;31655;48.972;10.686;2022-12-07T11:51:38;11.80;;;7.07;;
45944;SDS011;31655;48.972;10.686;2022-12-07T11:54:14;14.48;;;7.32;;
45944;SDS011;31655;48.972;10.686;2022-12-07T11:56:45;13.30;;;6.95;;
45944;SDS011;31655;48.972;10.686;2022-12-07T11:59:29;10.88;;;6.90;;
45944;SDS011;31655;48.972;10.686;2022-12-07T12:24:14;10.35;;;6.40;;
45944;SDS011;31655;48.972;10.686;2022-12-07T12:54:03;9.35;;;5.40;;
45944;SDS011;31655;48.972;10.686;2022-12-07T13:04:49;11.80;;;5.90;;
45944;SDS011;31655;48.972;10.686;2022-12-07T13:13:00;11.20;;;4.95;;
45944;SDS011;31655;48.972;10.686;2022-12-07T13:15:32;10.40;;;6.03;;
45944;SDS011;31655;48.972;10.686;2022-12-07T13:17:59;8.90;;;6.13;;
45944;SDS011;31655;48.972;10.686;2022-12-07T13:20:43;9.15;;;6.07;;
45944;SDS011;31655;48.972;10.686;2022-12-07T13:28:50;8.20;;;5.72;;
45944;SDS011;31655;48.972;10.686;2022-12-07T13:31:41;6.88;;;4.72;;
45944;SDS011;31655;48.972;10.686;2022-12-07T13:36:53;9.63;;;5.90;;
45944;SDS011;31655;48.972;10.686;2022-12-07T13:39:20;10.27;;;5.97;;
45944;SDS011;31655;48.972;10.686;2022-12-07T13:41:58;10.70;;;6.03;;
45944;SDS011;31655;48.972;10.686;2022-12-07T13:44:27;9.27;;;5.03;;
45944;SDS011;31655;48.972;10.686;2022-12-07T13:49:31;8.10;;;5.70;;
45944;SDS011;31655;48.972;10.686;2022-12-07T13:52:20;7.43;;;5.68;;
45944;SDS011;31655;48.972;10.686;2022-12-07T13:55:29;12.32;;;6.15;;
45944;SDS011;31655;48.972;10.686;2022-12-07T13:57:39;10.45;;;6.07;;
45944;SDS011;31655;48.972;10.686;2022-12-07T14:00:13;10.65;;;6.68;;
45944;SDS011;31655;48.972;10.686;2022-12-07T14:02:57;8.77;;;5.60;;
45944;SDS011;31655;48.972;10.686;2022-12-07T14:05:27;8.45;;;5.80;;
45944;SDS011;31655;48.972;10.686;2022-12-07T14:10:25;10.43;;;6.00;;
45944;SDS011;31655;48.972;10.686;2022-12-07T14:12:56;14.73;;;6.50;;
45944;SDS011;31655;48.972;10.686;2022-12-07T14:15:24;10.00;;;6.05;;
45944;SDS011;31655;48.972;10.686;2022-12-07T14:17:56;11.27;;;7.30;;
45944;SDS011;31655;48.972;10.686;2022-12-07T14:23:27;11.43;;;7.07;;
45944;SDS011;31655;48.972;10.686;2022-12-07T14:25:53;11.38;;;6.72;;
45944;SDS011;31655;48.972;10.686;2022-12-07T14:28:30;16.33;;;6.80;;
45944;SDS011;31655;48.972;10.686;2022-12-07T14:31:00;12.27;;;6.10;;
45944;SDS011;31655;48.972;10.686;2022-12-07T14:33:26;9.60;;;6.50;;
45944;SDS011;31655;48.972;10.686;2022-12-07T14:35:53;11.43;;;6.70;;
45944;SDS011;31655;48.972;10.686;2022-12-07T14:38:23;12.48;;;7.35;;
45944;SDS011;31655;48.972;10.686;2022-12-07T14:40:53;10.70;;;6.97;;
45944;SDS011;31655;48.972;10.686;2022-12-07T14:43:19;12.98;;;7.55;;
45944;SDS011;31655;48.972;10.686;2022-12-07T14:45:45;11.60;;;7.35;;
45944;SDS011;31655;48.972;10.686;2022-12-07T14:48:12;16.38;;;8.60;;
45944;SDS011;31655;48.972;10.686;2022-12-07T14:50:43;13.63;;;8.98;;
45944;SDS011;31655;48.972;10.686;2022-12-07T14:53:17;13.97;;;8.37;;
45944;SDS011;31655;48.972;10.686;2022-12-07T14:55:47;15.20;;;9.03;;
45944;SDS011;31655;48.972;10.686;2022-12-07T14:58:17;18.20;;;9.10;;
45944;SDS011;31655;48.972;10.686;2022-12-07T15:00:43;16.38;;;10.10;;
45944;SDS011;31655;48.972;10.686;2022-12-07T15:03:09;22.92;;;11.02;;
45944;SDS011;31655;48.972;10.686;2022-12-07T15:05:35;54.33;;;20.17;;
45944;SDS011;31655;48.972;10.686;2022-12-07T15:08:02;21.27;;;10.50;;
45944;SDS011;31655;48.972;10.686;2022-12-07T15:10:29;15.10;;;9.23;;
45944;SDS011;31655;48.972;10.686;2022-12-07T15:12:57;15.45;;;9.85;;
45944;SDS011;31655;48.972;10.686;2022-12-07T15:15:41;19.02;;;10.15;;
45944;SDS011;31655;48.972;10.686;2022-12-07T15:18:07;17.92;;;10.55;;
45944;SDS011;31655;48.972;10.686;2022-12-07T15:20:33;19.48;;;10.20;;
45944;SDS011;31655;48.972;10.686;2022-12-07T15:22:59;18.40;;;9.23;;
45944;SDS011;31655;48.972;10.686;2022-12-07T15:25:25;18.75;;;10.32;;
45944;SDS011;31655;48.972;10.686;2022-12-07T15:38:14;23.77;;;11.90;;
45944;SDS011;31655;48.972;10.686;2022-12-07T15:40:40;16.23;;;10.23;;
45944;SDS011;31655;48.972;10.686;2022-12-07T15:43:08;19.30;;;10.80;;
45944;SDS011;31655;48.972;10.686;2022-12-07T15:45:54;17.95;;;9.35;;
45944;SDS011;31655;48.972;10.686;2022-12-07T15:48:20;20.00;;;9.77;;
45944;SDS011;31655;48.972;10.686;2022-12-07T15:50:46;18.15;;;9.70;;
45944;SDS011;31655;48.972;10.686;2022-12-07T15:53:12;14.95;;;9.30;;
45944;SDS011;31655;48.972;10.686;2022-12-07T15:55:38;13.90;;;9.10;;
45944;SDS011;31655;48.972;10.686;2022-12-07T15:58:06;17.05;;;10.05;;
45944;SDS011;31655;48.972;10.686;2022-12-07T16:00:32;20.85;;;9.63;;
45944;SDS011;31655;48.972;10.686;2022-12-07T16:02:58;16.38;;;9.68;;
45944;SDS011;31655;48.972;10.686;2022-12-07T16:05:24;15.93;;;9.23;;
45944;SDS011;31655;48.972;10.686;2022-12-07T16:07:50;15.75;;;9.23;;
45944;SDS011;31655;48.972;10.686;2022-12-07T16:10:16;17.60;;;9.82;;
45944;SDS011;31655;48.972;10.686;2022-12-07T16:12:42;15.00;;;8.98;;
45944;SDS011;31655;48.972;10.686;2022-12-07T16:15:08;19.73;;;10.55;;
45944;SDS011;31655;48.972;10.686;2022-12-07T16:17:34;16.17;;;10.68;;
45944;SDS011;31655;48.972;10.686;2022-12-07T16:20:00;19.63;;;9.63;;
45944;SDS011;31655;48.972;10.686;2022-12-07T16:22:26;20.80;;;10.35;;
45944;SDS011;31655;48.972;10.686;2022-12-07T16:24:52;23.15;;;11.88;;
45944;SDS011;31655;48.972;10.686;2022-12-07T16:27:17;27.63;;;14.55;;
45944;SDS011;31655;48.972;10.686;2022-12-07T16:29:43;50.30;;;23.67;;
45944;SDS011;31655;48.972;10.686;2022-12-07T16:32:09;29.58;;;13.65;;
45944;SDS011;31655;48.972;10.686;2022-12-07T16:34:34;23.85;;;13.25;;
45944;SDS011;31655;48.972;10.686;2022-12-07T16:37:00;24.27;;;12.80;;
45944;SDS011;31655;48.972;10.686;2022-12-07T16:39:26;26.98;;;14.43;;
45944;SDS011;31655;48.972;10.686;2022-12-07T16:41:52;32.88;;;15.25;;
45944;SDS011;31655;48.972;10.686;2022-12-07T16:44:18;21.58;;;12.27;;
45944;SDS011;31655;48.972;10.686;2022-12-07T16:46:44;22.73;;;11.25;;
45944;SDS011;31655;48.972;10.686;2022-12-07T16:49:11;20.77;;;11.07;;
45944;SDS011;31655;48.972;10.686;2022-12-07T16:51:38;19.25;;;11.20;;
45944;SDS011;31655;48.972;10.686;2022-12-07T16:54:04;79.32;;;36.35;;
45944;SDS011;31655;48.972;10.686;2022-12-07T16:56:29;49.33;;;23.30;;
45944;SDS011;31655;48.972;10.686;2022-12-07T16:58:57;31.90;;;15.50;;
45944;SDS011;31655;48.972;10.686;2022-12-07T17:01:23;65.97;;;27.48;;
45944;SDS011;31655;48.972;10.686;2022-12-07T17:03:49;42.95;;;19.88;;
45944;SDS011;31655;48.972;10.686;2022-12-07T17:08:41;62.78;;;26.15;;
45944;SDS011;31655;48.972;10.686;2022-12-07T17:11:11;24.30;;;12.95;;
45944;SDS011;31655;48.972;10.686;2022-12-07T17:13:47;26.98;;;15.05;;
45944;SDS011;31655;48.972;10.686;2022-12-07T17:16:32;36.58;;;16.42;;
45944;SDS011;31655;48.972;10.686;2022-12-07T17:18:58;41.15;;;21.13;;
45944;SDS011;31655;48.972;10.686;2022-12-07T17:21:24;71.20;;;30.42;;
45944;SDS011;31655;48.972;10.686;2022-12-07T17:23:49;30.70;;;16.02;;
45944;SDS011;31655;48.972;10.686;2022-12-07T17:26:25;20.65;;;11.50;;
45944;SDS011;31655;48.972;10.686;2022-12-07T17:28:51;20.13;;;11.77;;
45944;SDS011;31655;48.972;10.686;2022-12-07T17:31:18;19.55;;;10.95;;
45944;SDS011;31655;48.972;10.686;2022-12-07T17:33:46;26.00;;;12.90;;
45944;SDS011;31655;48.972;10.686;2022-12-07T17:36:19;24.17;;;14.05;;
